sensor_id;sensor_type;location;lat;lon;timestamp;temperature;humidity
41533;DHT22;27262;-35.248;149.138;2022-09-01T00:00:11;19.30;64.00
41533;DHT22;27262;-35.248;149.138;2022-09-01T00:02:43;19.40;64.50
41533;DHT22;27262;-35.248;149.138;2022-09-01T00:05:13;19.40;63.90
41533;DHT22;27262;-35.248;149.138;2022-09-01T00:07:44;19.40;63.90
41533;DHT22;27262;-35.248;149.138;2022-09-01T00:10:14;19.50;64.10
41533;DHT22;27262;-35.248;149.138;2022-09-01T00:12:45;19.50;63.70
41533;DHT22;27262;-35.248;149.138;2022-09-01T00:15:15;19.60;64.00
41533;DHT22;27262;-35.248;149.138;2022-09-01T00:17:46;19.60;64.70
41533;DHT22;27262;-35.248;149.138;2022-09-01T00:20:16;19.60;63.90
41533;DHT22;27262;-35.248;149.138;2022-09-01T00:23:06;19.70;64.00
41533;DHT22;27262;-35.248;149.138;2022-09-01T00:25:36;19.70;63.40
41533;DHT22;27262;-35.248;149.138;2022-09-01T00:28:06;19.70;63.60
41533;DHT22;27262;-35.248;149.138;2022-09-01T00:30:36;19.70;63.40
41533;DHT22;27262;-35.248;149.138;2022-09-01T00:33:07;19.70;63.30
41533;DHT22;27262;-35.248;149.138;2022-09-01T00:35:37;19.80;63.50
41533;DHT22;27262;-35.248;149.138;2022-09-01T00:38:07;19.80;64.00
41533;DHT22;27262;-35.248;149.138;2022-09-01T00:40:38;19.80;63.20
41533;DHT22;27262;-35.248;149.138;2022-09-01T00:43:23;19.80;63.00
41533;DHT22;27262;-35.248;149.138;2022-09-01T00:46:08;19.90;63.00
41533;DHT22;27262;-35.248;149.138;2022-09-01T00:48:39;19.90;62.80
41533;DHT22;27262;-35.248;149.138;2022-09-01T00:51:12;19.90;62.70
41533;DHT22;27262;-35.248;149.138;2022-09-01T00:53:43;20.00;62.90
41533;DHT22;27262;-35.248;149.138;2022-09-01T00:56:14;20.00;62.50
41533;DHT22;27262;-35.248;149.138;2022-09-01T00:58:45;20.00;62.70
41533;DHT22;27262;-35.248;149.138;2022-09-01T01:01:15;20.10;62.40
41533;DHT22;27262;-35.248;149.138;2022-09-01T01:03:45;20.10;62.30
41533;DHT22;27262;-35.248;149.138;2022-09-01T01:06:16;20.10;62.30
41533;DHT22;27262;-35.248;149.138;2022-09-01T01:08:48;20.10;62.00
41533;DHT22;27262;-35.248;149.138;2022-09-01T01:11:31;20.10;62.10
41533;DHT22;27262;-35.248;149.138;2022-09-01T01:14:05;20.20;61.90
41533;DHT22;27262;-35.248;149.138;2022-09-01T01:16:43;20.20;61.90
41533;DHT22;27262;-35.248;149.138;2022-09-01T01:25:41;20.30;61.80
41533;DHT22;27262;-35.248;149.138;2022-09-01T01:28:34;20.20;61.80
41533;DHT22;27262;-35.248;149.138;2022-09-01T01:31:12;20.30;61.80
41533;DHT22;27262;-35.248;149.138;2022-09-01T01:33:46;20.30;61.90
41533;DHT22;27262;-35.248;149.138;2022-09-01T01:36:22;20.20;61.90
41533;DHT22;27262;-35.248;149.138;2022-09-01T01:39:18;20.30;61.90
41533;DHT22;27262;-35.248;149.138;2022-09-01T01:41:50;20.30;61.90
41533;DHT22;27262;-35.248;149.138;2022-09-01T01:44:23;20.30;62.10
41533;DHT22;27262;-35.248;149.138;2022-09-01T01:46:56;20.30;61.90
41533;DHT22;27262;-35.248;149.138;2022-09-01T01:49:27;20.30;62.00
41533;DHT22;27262;-35.248;149.138;2022-09-01T01:51:59;20.30;61.90
41533;DHT22;27262;-35.248;149.138;2022-09-01T01:54:32;20.30;61.90
41533;DHT22;27262;-35.248;149.138;2022-09-01T01:57:03;20.40;61.90
41533;DHT22;27262;-35.248;149.138;2022-09-01T01:59:33;20.40;61.90
41533;DHT22;27262;-35.248;149.138;2022-09-01T02:02:04;20.40;61.90
41533;DHT22;27262;-35.248;149.138;2022-09-01T02:04:37;20.40;61.80
41533;DHT22;27262;-35.248;149.138;2022-09-01T02:07:11;20.50;61.80
41533;DHT22;27262;-35.248;149.138;2022-09-01T02:09:42;20.40;61.70
41533;DHT22;27262;-35.248;149.138;2022-09-01T02:12:14;20.40;61.70
41533;DHT22;27262;-35.248;149.138;2022-09-01T02:14:47;20.50;61.70
41533;DHT22;27262;-35.248;149.138;2022-09-01T02:17:18;20.40;61.70
41533;DHT22;27262;-35.248;149.138;2022-09-01T02:19:49;20.40;61.80
41533;DHT22;27262;-35.248;149.138;2022-09-01T02:22:25;20.40;61.80
41533;DHT22;27262;-35.248;149.138;2022-09-01T02:24:56;20.40;61.90
41533;DHT22;27262;-35.248;149.138;2022-09-01T02:27:29;20.40;61.90
41533;DHT22;27262;-35.248;149.138;2022-09-01T02:30:04;20.40;62.00
41533;DHT22;27262;-35.248;149.138;2022-09-01T02:32:38;20.40;62.10
41533;DHT22;27262;-35.248;149.138;2022-09-01T02:35:10;20.40;62.10
41533;DHT22;27262;-35.248;149.138;2022-09-01T02:37:41;20.40;62.10
41533;DHT22;27262;-35.248;149.138;2022-09-01T02:40:12;20.40;62.10
41533;DHT22;27262;-35.248;149.138;2022-09-01T02:42:44;20.40;62.10
41533;DHT22;27262;-35.248;149.138;2022-09-01T02:45:16;20.40;62.10
41533;DHT22;27262;-35.248;149.138;2022-09-01T02:47:48;20.40;62.10
41533;DHT22;27262;-35.248;149.138;2022-09-01T02:50:19;20.50;62.20
41533;DHT22;27262;-35.248;149.138;2022-09-01T02:52:51;20.40;62.10
41533;DHT22;27262;-35.248;149.138;2022-09-01T02:55:24;20.50;62.10
41533;DHT22;27262;-35.248;149.138;2022-09-01T02:57:55;20.50;62.10
41533;DHT22;27262;-35.248;149.138;2022-09-01T03:00:25;20.40;62.10
41533;DHT22;27262;-35.248;149.138;2022-09-01T03:03:02;20.40;62.10
41533;DHT22;27262;-35.248;149.138;2022-09-01T03:05:34;20.50;62.10
41533;DHT22;27262;-35.248;149.138;2022-09-01T03:08:10;20.50;62.10
41533;DHT22;27262;-35.248;149.138;2022-09-01T03:11:01;20.50;62.10
41533;DHT22;27262;-35.248;149.138;2022-09-01T03:13:35;20.50;62.10
41533;DHT22;27262;-35.248;149.138;2022-09-01T03:16:07;20.50;62.10
41533;DHT22;27262;-35.248;149.138;2022-09-01T03:18:38;20.60;62.00
41533;DHT22;27262;-35.248;149.138;2022-09-01T03:21:09;20.50;61.90
41533;DHT22;27262;-35.248;149.138;2022-09-01T03:23:46;20.60;61.90
41533;DHT22;27262;-35.248;149.138;2022-09-01T03:26:18;20.60;61.90
41533;DHT22;27262;-35.248;149.138;2022-09-01T03:28:51;20.60;61.80
41533;DHT22;27262;-35.248;149.138;2022-09-01T03:31:21;20.60;61.80
41533;DHT22;27262;-35.248;149.138;2022-09-01T03:33:58;20.70;61.90
41533;DHT22;27262;-35.248;149.138;2022-09-01T03:36:29;20.70;61.90
41533;DHT22;27262;-35.248;149.138;2022-09-01T03:39:01;20.70;61.90
41533;DHT22;27262;-35.248;149.138;2022-09-01T03:41:32;20.70;61.90
41533;DHT22;27262;-35.248;149.138;2022-09-01T03:44:05;20.70;61.90
41533;DHT22;27262;-35.248;149.138;2022-09-01T03:46:39;20.70;61.80
41533;DHT22;27262;-35.248;149.138;2022-09-01T03:49:10;20.70;61.80
41533;DHT22;27262;-35.248;149.138;2022-09-01T03:51:44;20.70;61.80
41533;DHT22;27262;-35.248;149.138;2022-09-01T03:54:14;20.70;61.80
41533;DHT22;27262;-35.248;149.138;2022-09-01T03:56:46;20.70;61.80
41533;DHT22;27262;-35.248;149.138;2022-09-01T03:59:16;20.80;61.80
41533;DHT22;27262;-35.248;149.138;2022-09-01T04:01:48;20.80;61.90
41533;DHT22;27262;-35.248;149.138;2022-09-01T04:04:18;20.80;61.80
41533;DHT22;27262;-35.248;149.138;2022-09-01T04:06:49;20.80;61.70
41533;DHT22;27262;-35.248;149.138;2022-09-01T04:09:19;20.80;61.70
41533;DHT22;27262;-35.248;149.138;2022-09-01T04:11:49;20.80;61.70
41533;DHT22;27262;-35.248;149.138;2022-09-01T04:14:21;20.90;61.70
41533;DHT22;27262;-35.248;149.138;2022-09-01T04:16:56;20.90;61.70
41533;DHT22;27262;-35.248;149.138;2022-09-01T04:19:44;20.90;61.70
41533;DHT22;27262;-35.248;149.138;2022-09-01T04:22:15;20.90;61.70
41533;DHT22;27262;-35.248;149.138;2022-09-01T04:24:46;20.90;61.70
41533;DHT22;27262;-35.248;149.138;2022-09-01T04:27:16;20.90;61.60
41533;DHT22;27262;-35.248;149.138;2022-09-01T04:29:46;20.90;61.60
41533;DHT22;27262;-35.248;149.138;2022-09-01T04:32:16;20.90;61.50
41533;DHT22;27262;-35.248;149.138;2022-09-01T04:34:50;20.90;61.50
41533;DHT22;27262;-35.248;149.138;2022-09-01T04:37:21;21.00;61.70
41533;DHT22;27262;-35.248;149.138;2022-09-01T04:39:53;21.00;61.60
41533;DHT22;27262;-35.248;149.138;2022-09-01T04:42:26;21.00;61.50
41533;DHT22;27262;-35.248;149.138;2022-09-01T04:44:57;21.00;61.50
41533;DHT22;27262;-35.248;149.138;2022-09-01T04:47:37;21.00;61.60
41533;DHT22;27262;-35.248;149.138;2022-09-01T04:50:11;21.00;61.50
41533;DHT22;27262;-35.248;149.138;2022-09-01T04:52:46;21.00;61.50
41533;DHT22;27262;-35.248;149.138;2022-09-01T04:55:19;21.00;61.50
41533;DHT22;27262;-35.248;149.138;2022-09-01T04:57:49;21.00;61.40
41533;DHT22;27262;-35.248;149.138;2022-09-01T05:00:21;21.10;61.50
41533;DHT22;27262;-35.248;149.138;2022-09-01T05:02:53;21.10;61.50
41533;DHT22;27262;-35.248;149.138;2022-09-01T05:05:25;21.10;61.50
41533;DHT22;27262;-35.248;149.138;2022-09-01T05:07:56;21.10;61.50
41533;DHT22;27262;-35.248;149.138;2022-09-01T05:10:27;21.10;61.50
41533;DHT22;27262;-35.248;149.138;2022-09-01T05:12:58;21.10;61.50
41533;DHT22;27262;-35.248;149.138;2022-09-01T05:15:30;21.20;61.50
41533;DHT22;27262;-35.248;149.138;2022-09-01T05:18:01;21.20;61.40
41533;DHT22;27262;-35.248;149.138;2022-09-01T05:20:41;21.20;61.40
41533;DHT22;27262;-35.248;149.138;2022-09-01T05:23:12;21.20;61.50
41533;DHT22;27262;-35.248;149.138;2022-09-01T05:25:51;21.20;61.40
41533;DHT22;27262;-35.248;149.138;2022-09-01T05:28:23;21.20;61.40
41533;DHT22;27262;-35.248;149.138;2022-09-01T05:30:53;21.20;61.40
41533;DHT22;27262;-35.248;149.138;2022-09-01T05:33:23;21.20;61.40
41533;DHT22;27262;-35.248;149.138;2022-09-01T05:35:56;21.20;61.40
41533;DHT22;27262;-35.248;149.138;2022-09-01T05:38:30;21.20;61.40
41533;DHT22;27262;-35.248;149.138;2022-09-01T05:41:04;21.20;61.40
41533;DHT22;27262;-35.248;149.138;2022-09-01T05:43:37;21.20;61.30
41533;DHT22;27262;-35.248;149.138;2022-09-01T05:46:07;21.30;61.30
41533;DHT22;27262;-35.248;149.138;2022-09-01T05:48:40;21.30;61.40
41533;DHT22;27262;-35.248;149.138;2022-09-01T05:51:11;21.30;61.30
41533;DHT22;27262;-35.248;149.138;2022-09-01T05:54:07;21.30;61.30
41533;DHT22;27262;-35.248;149.138;2022-09-01T05:56:38;21.30;61.30
41533;DHT22;27262;-35.248;149.138;2022-09-01T05:59:13;21.30;61.30
41533;DHT22;27262;-35.248;149.138;2022-09-01T06:01:53;21.30;61.30
41533;DHT22;27262;-35.248;149.138;2022-09-01T06:04:24;21.30;61.40
41533;DHT22;27262;-35.248;149.138;2022-09-01T06:06:55;21.30;61.30
41533;DHT22;27262;-35.248;149.138;2022-09-01T06:09:40;21.30;61.30
41533;DHT22;27262;-35.248;149.138;2022-09-01T06:12:11;21.30;61.20
41533;DHT22;27262;-35.248;149.138;2022-09-01T06:14:47;21.30;61.30
41533;DHT22;27262;-35.248;149.138;2022-09-01T06:17:19;21.40;61.30
41533;DHT22;27262;-35.248;149.138;2022-09-01T06:19:54;21.30;61.20
41533;DHT22;27262;-35.248;149.138;2022-09-01T06:22:26;21.30;61.20
41533;DHT22;27262;-35.248;149.138;2022-09-01T06:24:57;21.40;61.10
41533;DHT22;27262;-35.248;149.138;2022-09-01T06:27:29;21.40;61.20
41533;DHT22;27262;-35.248;149.138;2022-09-01T06:30:01;21.40;61.20
41533;DHT22;27262;-35.248;149.138;2022-09-01T06:32:33;21.40;61.90
41533;DHT22;27262;-35.248;149.138;2022-09-01T06:35:07;21.40;61.10
41533;DHT22;27262;-35.248;149.138;2022-09-01T06:37:40;21.40;61.10
41533;DHT22;27262;-35.248;149.138;2022-09-01T06:40:14;21.40;61.10
41533;DHT22;27262;-35.248;149.138;2022-09-01T06:42:49;21.40;61.10
41533;DHT22;27262;-35.248;149.138;2022-09-01T06:45:22;21.40;61.00
41533;DHT22;27262;-35.248;149.138;2022-09-01T06:47:53;21.40;61.10
41533;DHT22;27262;-35.248;149.138;2022-09-01T06:50:27;21.40;61.10
41533;DHT22;27262;-35.248;149.138;2022-09-01T06:53:18;21.40;61.10
41533;DHT22;27262;-35.248;149.138;2022-09-01T06:56:06;21.40;61.10
41533;DHT22;27262;-35.248;149.138;2022-09-01T06:58:42;21.40;61.20
41533;DHT22;27262;-35.248;149.138;2022-09-01T07:01:18;21.40;61.10
41533;DHT22;27262;-35.248;149.138;2022-09-01T07:03:51;21.40;61.10
41533;DHT22;27262;-35.248;149.138;2022-09-01T07:06:24;21.40;61.00
41533;DHT22;27262;-35.248;149.138;2022-09-01T07:09:19;21.40;61.00
41533;DHT22;27262;-35.248;149.138;2022-09-01T07:12:09;21.40;61.80
41533;DHT22;27262;-35.248;149.138;2022-09-01T07:14:55;21.40;61.10
41533;DHT22;27262;-35.248;149.138;2022-09-01T07:17:50;21.40;61.80
41533;DHT22;27262;-35.248;149.138;2022-09-01T07:20:24;21.40;61.10
41533;DHT22;27262;-35.248;149.138;2022-09-01T07:22:57;21.40;61.00
41533;DHT22;27262;-35.248;149.138;2022-09-01T07:25:31;21.40;61.00
41533;DHT22;27262;-35.248;149.138;2022-09-01T07:28:24;21.40;61.00
41533;DHT22;27262;-35.248;149.138;2022-09-01T07:31:05;21.40;61.00
41533;DHT22;27262;-35.248;149.138;2022-09-01T07:34:00;21.50;61.10
41533;DHT22;27262;-35.248;149.138;2022-09-01T07:36:52;21.50;61.00
41533;DHT22;27262;-35.248;149.138;2022-09-01T07:39:47;21.40;61.00
41533;DHT22;27262;-35.248;149.138;2022-09-01T07:42:19;21.40;60.90
41533;DHT22;27262;-35.248;149.138;2022-09-01T07:45:11;21.50;60.90
41533;DHT22;27262;-35.248;149.138;2022-09-01T07:47:58;21.50;60.90
41533;DHT22;27262;-35.248;149.138;2022-09-01T07:50:33;21.50;60.90
41533;DHT22;27262;-35.248;149.138;2022-09-01T07:53:27;21.50;60.90
41533;DHT22;27262;-35.248;149.138;2022-09-01T07:56:08;21.50;60.90
41533;DHT22;27262;-35.248;149.138;2022-09-01T07:58:39;21.60;60.90
41533;DHT22;27262;-35.248;149.138;2022-09-01T08:01:20;21.50;60.90
41533;DHT22;27262;-35.248;149.138;2022-09-01T08:03:55;21.60;60.80
41533;DHT22;27262;-35.248;149.138;2022-09-01T08:06:27;21.50;60.70
41533;DHT22;27262;-35.248;149.138;2022-09-01T08:09:05;21.50;60.70
41533;DHT22;27262;-35.248;149.138;2022-09-01T08:11:39;21.50;60.90
41533;DHT22;27262;-35.248;149.138;2022-09-01T08:14:29;21.50;60.70
41533;DHT22;27262;-35.248;149.138;2022-09-01T08:17:01;21.50;60.70
41533;DHT22;27262;-35.248;149.138;2022-09-01T08:19:51;21.50;60.80
41533;DHT22;27262;-35.248;149.138;2022-09-01T08:22:23;21.50;60.70
41533;DHT22;27262;-35.248;149.138;2022-09-01T08:24:54;21.60;60.70
41533;DHT22;27262;-35.248;149.138;2022-09-01T08:27:24;21.50;60.70
41533;DHT22;27262;-35.248;149.138;2022-09-01T08:29:55;21.50;60.70
41533;DHT22;27262;-35.248;149.138;2022-09-01T08:32:25;21.50;60.70
41533;DHT22;27262;-35.248;149.138;2022-09-01T08:34:56;21.50;60.60
41533;DHT22;27262;-35.248;149.138;2022-09-01T08:37:26;21.50;60.70
41533;DHT22;27262;-35.248;149.138;2022-09-01T08:39:57;21.50;60.70
41533;DHT22;27262;-35.248;149.138;2022-09-01T08:47:54;21.50;60.90
41533;DHT22;27262;-35.248;149.138;2022-09-01T08:50:52;21.50;60.90
41533;DHT22;27262;-35.248;149.138;2022-09-01T08:53:40;21.50;61.00
41533;DHT22;27262;-35.248;149.138;2022-09-01T08:56:12;21.50;61.10
41533;DHT22;27262;-35.248;149.138;2022-09-01T08:58:44;21.40;61.20
41533;DHT22;27262;-35.248;149.138;2022-09-01T09:01:35;21.40;61.30
41533;DHT22;27262;-35.248;149.138;2022-09-01T09:05:05;21.40;61.30
41533;DHT22;27262;-35.248;149.138;2022-09-01T09:10:29;21.30;61.80
41533;DHT22;27262;-35.248;149.138;2022-09-01T09:13:23;21.30;61.80
41533;DHT22;27262;-35.248;149.138;2022-09-01T09:16:23;21.40;61.90
41533;DHT22;27262;-35.248;149.138;2022-09-01T09:19:15;21.40;62.00
41533;DHT22;27262;-35.248;149.138;2022-09-01T09:21:51;21.30;62.10
41533;DHT22;27262;-35.248;149.138;2022-09-01T09:27:24;21.30;62.10
41533;DHT22;27262;-35.248;149.138;2022-09-01T09:30:22;21.30;62.10
41533;DHT22;27262;-35.248;149.138;2022-09-01T09:32:59;21.30;62.20
41533;DHT22;27262;-35.248;149.138;2022-09-01T09:35:53;21.20;62.20
41533;DHT22;27262;-35.248;149.138;2022-09-01T09:38:29;21.20;62.30
41533;DHT22;27262;-35.248;149.138;2022-09-01T09:41:18;21.30;62.40
41533;DHT22;27262;-35.248;149.138;2022-09-01T09:46:46;21.20;62.30
41533;DHT22;27262;-35.248;149.138;2022-09-01T09:49:30;21.10;62.30
41533;DHT22;27262;-35.248;149.138;2022-09-01T09:55:05;21.10;62.40
41533;DHT22;27262;-35.248;149.138;2022-09-01T09:57:39;21.20;62.30
41533;DHT22;27262;-35.248;149.138;2022-09-01T10:00:29;21.10;62.40
41533;DHT22;27262;-35.248;149.138;2022-09-01T10:03:06;21.10;62.40
41533;DHT22;27262;-35.248;149.138;2022-09-01T10:05:42;21.10;62.40
41533;DHT22;27262;-35.248;149.138;2022-09-01T10:08:42;21.10;62.50
41533;DHT22;27262;-35.248;149.138;2022-09-01T10:11:40;21.10;62.40
41533;DHT22;27262;-35.248;149.138;2022-09-01T10:14:18;21.10;62.40
41533;DHT22;27262;-35.248;149.138;2022-09-01T10:17:14;21.10;62.50
41533;DHT22;27262;-35.248;149.138;2022-09-01T10:19:54;21.10;62.50
41533;DHT22;27262;-35.248;149.138;2022-09-01T10:22:25;21.00;62.50
41533;DHT22;27262;-35.248;149.138;2022-09-01T10:24:55;21.00;62.40
41533;DHT22;27262;-35.248;149.138;2022-09-01T10:27:30;21.00;62.40
41533;DHT22;27262;-35.248;149.138;2022-09-01T10:30:14;21.00;62.40
41533;DHT22;27262;-35.248;149.138;2022-09-01T10:32:51;21.00;62.50
41533;DHT22;27262;-35.248;149.138;2022-09-01T10:35:32;21.00;62.50
41533;DHT22;27262;-35.248;149.138;2022-09-01T10:38:15;21.00;62.50
41533;DHT22;27262;-35.248;149.138;2022-09-01T10:40:59;21.00;62.40
41533;DHT22;27262;-35.248;149.138;2022-09-01T10:43:47;20.90;62.50
41533;DHT22;27262;-35.248;149.138;2022-09-01T10:52:02;20.90;62.40
41533;DHT22;27262;-35.248;149.138;2022-09-01T11:06:00;20.90;62.50
41533;DHT22;27262;-35.248;149.138;2022-09-01T11:09:00;20.80;62.40
41533;DHT22;27262;-35.248;149.138;2022-09-01T11:11:46;20.80;62.40
41533;DHT22;27262;-35.248;149.138;2022-09-01T11:14:24;20.80;62.30
41533;DHT22;27262;-35.248;149.138;2022-09-01T11:17:12;20.80;62.40
41533;DHT22;27262;-35.248;149.138;2022-09-01T11:22:40;20.80;62.40
41533;DHT22;27262;-35.248;149.138;2022-09-01T11:41:57;20.70;62.30
41533;DHT22;27262;-35.248;149.138;2022-09-01T11:47:42;20.70;62.10
41533;DHT22;27262;-35.248;149.138;2022-09-01T11:50:32;20.70;62.30
41533;DHT22;27262;-35.248;149.138;2022-09-01T11:53:06;20.70;62.30
41533;DHT22;27262;-35.248;149.138;2022-09-01T11:55:44;20.60;62.30
41533;DHT22;27262;-35.248;149.138;2022-09-01T11:58:32;20.60;62.30
41533;DHT22;27262;-35.248;149.138;2022-09-01T12:03:48;20.60;62.20
41533;DHT22;27262;-35.248;149.138;2022-09-01T12:06:24;20.60;62.20
41533;DHT22;27262;-35.248;149.138;2022-09-01T12:09:02;20.70;62.30
41533;DHT22;27262;-35.248;149.138;2022-09-01T12:11:34;20.60;62.10
41533;DHT22;27262;-35.248;149.138;2022-09-01T12:14:08;20.60;62.20
41533;DHT22;27262;-35.248;149.138;2022-09-01T12:16:41;20.60;62.30
41533;DHT22;27262;-35.248;149.138;2022-09-01T12:19:24;20.60;62.30
41533;DHT22;27262;-35.248;149.138;2022-09-01T12:22:12;20.60;62.30
41533;DHT22;27262;-35.248;149.138;2022-09-01T12:24:49;20.60;62.30
41533;DHT22;27262;-35.248;149.138;2022-09-01T12:27:21;20.50;62.30
41533;DHT22;27262;-35.248;149.138;2022-09-01T12:29:52;20.50;62.40
41533;DHT22;27262;-35.248;149.138;2022-09-01T12:32:22;20.50;62.50
41533;DHT22;27262;-35.248;149.138;2022-09-01T12:35:03;20.50;62.50
41533;DHT22;27262;-35.248;149.138;2022-09-01T12:37:38;20.50;62.50
41533;DHT22;27262;-35.248;149.138;2022-09-01T12:40:26;20.40;62.60
41533;DHT22;27262;-35.248;149.138;2022-09-01T12:42:59;20.40;62.50
41533;DHT22;27262;-35.248;149.138;2022-09-01T12:45:46;20.40;62.60
41533;DHT22;27262;-35.248;149.138;2022-09-01T12:48:36;20.40;62.60
41533;DHT22;27262;-35.248;149.138;2022-09-01T12:51:22;20.40;62.60
41533;DHT22;27262;-35.248;149.138;2022-09-01T12:53:59;20.40;62.60
41533;DHT22;27262;-35.248;149.138;2022-09-01T12:56:37;20.30;62.70
41533;DHT22;27262;-35.248;149.138;2022-09-01T12:59:23;20.30;62.60
41533;DHT22;27262;-35.248;149.138;2022-09-01T13:02:26;20.30;62.60
41533;DHT22;27262;-35.248;149.138;2022-09-01T13:05:30;20.30;62.60
41533;DHT22;27262;-35.248;149.138;2022-09-01T13:08:15;20.30;63.40
41533;DHT22;27262;-35.248;149.138;2022-09-01T13:10:52;20.20;62.70
41533;DHT22;27262;-35.248;149.138;2022-09-01T13:13:24;20.20;62.70
41533;DHT22;27262;-35.248;149.138;2022-09-01T13:15:57;20.20;62.70
41533;DHT22;27262;-35.248;149.138;2022-09-01T13:18:32;20.20;62.70
41533;DHT22;27262;-35.248;149.138;2022-09-01T13:21:23;20.20;62.70
41533;DHT22;27262;-35.248;149.138;2022-09-01T13:23:53;20.20;62.80
41533;DHT22;27262;-35.248;149.138;2022-09-01T13:26:24;20.10;62.70
41533;DHT22;27262;-35.248;149.138;2022-09-01T13:28:54;20.10;62.70
41533;DHT22;27262;-35.248;149.138;2022-09-01T13:31:25;20.10;62.70
41533;DHT22;27262;-35.248;149.138;2022-09-01T13:33:59;20.10;62.70
41533;DHT22;27262;-35.248;149.138;2022-09-01T13:36:37;20.10;62.80
41533;DHT22;27262;-35.248;149.138;2022-09-01T13:39:12;20.10;62.70
41533;DHT22;27262;-35.248;149.138;2022-09-01T13:41:43;20.00;62.80
41533;DHT22;27262;-35.248;149.138;2022-09-01T13:44:13;20.00;62.80
41533;DHT22;27262;-35.248;149.138;2022-09-01T13:46:44;20.00;62.70
41533;DHT22;27262;-35.248;149.138;2022-09-01T13:49:35;20.00;62.70
41533;DHT22;27262;-35.248;149.138;2022-09-01T13:52:26;20.00;62.80
41533;DHT22;27262;-35.248;149.138;2022-09-01T13:54:56;20.00;62.90
41533;DHT22;27262;-35.248;149.138;2022-09-01T13:57:26;19.90;62.80
41533;DHT22;27262;-35.248;149.138;2022-09-01T14:00:04;20.00;62.90
41533;DHT22;27262;-35.248;149.138;2022-09-01T14:02:38;19.90;62.80
41533;DHT22;27262;-35.248;149.138;2022-09-01T14:05:08;19.90;62.90
41533;DHT22;27262;-35.248;149.138;2022-09-01T14:07:39;19.90;62.90
41533;DHT22;27262;-35.248;149.138;2022-09-01T14:10:09;19.90;62.90
41533;DHT22;27262;-35.248;149.138;2022-09-01T14:12:40;19.90;62.90
41533;DHT22;27262;-35.248;149.138;2022-09-01T14:15:12;19.90;63.00
41533;DHT22;27262;-35.248;149.138;2022-09-01T14:17:47;19.90;62.90
41533;DHT22;27262;-35.248;149.138;2022-09-01T14:20:21;19.80;62.90
41533;DHT22;27262;-35.248;149.138;2022-09-01T14:22:52;19.80;63.00
41533;DHT22;27262;-35.248;149.138;2022-09-01T14:25:25;19.80;63.00
41533;DHT22;27262;-35.248;149.138;2022-09-01T14:27:55;19.80;63.00
41533;DHT22;27262;-35.248;149.138;2022-09-01T14:30:27;19.80;63.00
41533;DHT22;27262;-35.248;149.138;2022-09-01T14:32:59;19.80;63.10
41533;DHT22;27262;-35.248;149.138;2022-09-01T14:35:30;19.80;63.10
41533;DHT22;27262;-35.248;149.138;2022-09-01T14:38:02;19.70;63.10
41533;DHT22;27262;-35.248;149.138;2022-09-01T14:40:35;19.70;63.10
41533;DHT22;27262;-35.248;149.138;2022-09-01T14:43:09;19.70;63.10
41533;DHT22;27262;-35.248;149.138;2022-09-01T14:45:42;19.70;63.30
41533;DHT22;27262;-35.248;149.138;2022-09-01T14:48:18;19.70;63.30
41533;DHT22;27262;-35.248;149.138;2022-09-01T14:50:49;19.70;63.30
41533;DHT22;27262;-35.248;149.138;2022-09-01T14:53:19;19.70;63.30
41533;DHT22;27262;-35.248;149.138;2022-09-01T14:55:52;19.70;63.30
41533;DHT22;27262;-35.248;149.138;2022-09-01T14:58:24;19.60;63.30
41533;DHT22;27262;-35.248;149.138;2022-09-01T15:00:56;19.60;63.30
41533;DHT22;27262;-35.248;149.138;2022-09-01T15:03:47;19.60;63.20
41533;DHT22;27262;-35.248;149.138;2022-09-01T15:06:19;19.50;63.20
41533;DHT22;27262;-35.248;149.138;2022-09-01T15:08:50;19.50;63.20
41533;DHT22;27262;-35.248;149.138;2022-09-01T15:11:20;19.50;63.30
41533;DHT22;27262;-35.248;149.138;2022-09-01T15:13:50;19.50;64.00
41533;DHT22;27262;-35.248;149.138;2022-09-01T15:16:23;19.50;63.40
41533;DHT22;27262;-35.248;149.138;2022-09-01T15:18:54;19.50;63.40
41533;DHT22;27262;-35.248;149.138;2022-09-01T15:21:27;19.50;63.40
41533;DHT22;27262;-35.248;149.138;2022-09-01T15:24:04;19.50;63.40
41533;DHT22;27262;-35.248;149.138;2022-09-01T15:26:35;19.40;63.40
41533;DHT22;27262;-35.248;149.138;2022-09-01T15:29:07;19.40;63.30
41533;DHT22;27262;-35.248;149.138;2022-09-01T15:31:41;19.40;63.30
41533;DHT22;27262;-35.248;149.138;2022-09-01T15:34:12;19.40;63.30
41533;DHT22;27262;-35.248;149.138;2022-09-01T15:36:43;19.40;63.20
41533;DHT22;27262;-35.248;149.138;2022-09-01T15:39:13;19.30;63.10
41533;DHT22;27262;-35.248;149.138;2022-09-01T15:41:44;19.30;63.00
41533;DHT22;27262;-35.248;149.138;2022-09-01T15:44:14;19.40;63.00
41533;DHT22;27262;-35.248;149.138;2022-09-01T15:46:48;19.30;63.00
41533;DHT22;27262;-35.248;149.138;2022-09-01T15:49:19;19.30;62.90
41533;DHT22;27262;-35.248;149.138;2022-09-01T15:51:49;19.30;62.90
41533;DHT22;27262;-35.248;149.138;2022-09-01T15:54:20;19.30;62.80
41533;DHT22;27262;-35.248;149.138;2022-09-01T15:56:56;19.20;62.80
41533;DHT22;27262;-35.248;149.138;2022-09-01T15:59:26;19.30;62.80
41533;DHT22;27262;-35.248;149.138;2022-09-01T16:01:57;19.20;62.80
41533;DHT22;27262;-35.248;149.138;2022-09-01T16:04:27;19.20;62.70
41533;DHT22;27262;-35.248;149.138;2022-09-01T16:06:57;19.20;62.70
41533;DHT22;27262;-35.248;149.138;2022-09-01T16:09:28;19.20;62.60
41533;DHT22;27262;-35.248;149.138;2022-09-01T16:11:58;19.10;62.50
41533;DHT22;27262;-35.248;149.138;2022-09-01T16:14:29;19.20;62.60
41533;DHT22;27262;-35.248;149.138;2022-09-01T16:17:09;19.10;62.40
41533;DHT22;27262;-35.248;149.138;2022-09-01T16:19:55;19.10;62.40
41533;DHT22;27262;-35.248;149.138;2022-09-01T16:22:32;19.10;62.30
41533;DHT22;27262;-35.248;149.138;2022-09-01T16:25:12;19.10;62.40
41533;DHT22;27262;-35.248;149.138;2022-09-01T16:27:44;19.10;62.40
41533;DHT22;27262;-35.248;149.138;2022-09-01T16:30:20;19.00;62.30
41533;DHT22;27262;-35.248;149.138;2022-09-01T16:32:50;19.10;62.30
41533;DHT22;27262;-35.248;149.138;2022-09-01T16:35:25;19.00;62.30
41533;DHT22;27262;-35.248;149.138;2022-09-01T16:52:25;18.90;62.20
41533;DHT22;27262;-35.248;149.138;2022-09-01T17:01:23;18.90;62.30
41533;DHT22;27262;-35.248;149.138;2022-09-01T17:09:48;18.80;62.10
41533;DHT22;27262;-35.248;149.138;2022-09-01T17:15:08;18.80;62.20